Boardwalk — ZGAQ7 — position and weather

sailwx.info

Track history (hours):
 
Tides and Currents Weather Stations Pressure Air Temp Water Temp Dewpoint Dewpoint Depression Visibility Wind Speed Wind Dir Waves Ship Positions

Boardwalk

Last reported at 2017-Mar-22 13:27 UTC. Time now 2017-Mar-25 00:06 UTC.
Position N 26°45' W 080°03'.

Length 50 m; draft 2.7 m.

Type: Pleasure craft. MMSI: 319031900.

Date/timePositionNaut miles runAvg speedWind from/ knotsBaromVisibWave heightAir tempDewpointWater temp
2017-Mar-22 13:27N 26°45' W 080°03'0 0.0
2017-Mar-22 12:33N 26°45' W 080°03'25 1.2
2017-Mar-21 14:33N 26°20' W 080°01'1414.5
2017-Mar-21 13:33N 26°06' W 080°07'4 1.2
2017-Mar-21 10:28N 26°10' W 080°06'0 0.0
2017-Mar-21 09:04N 26°10' W 080°06'0 0.0
2017-Mar-21 08:16N 26°10' W 080°06'0 0.0
2017-Mar-20 17:16N 26°10' W 080°06'0 0.0
2017-Mar-20 16:16N 26°10' W 080°06'0 0.0
2017-Mar-20 15:04N 26°10' W 080°06'0 0.0
2017-Mar-20 14:04N 26°10' W 080°06'0 0.0
2017-Mar-20 12:22N 26°10' W 080°06'0 0.0
2017-Mar-20 11:22N 26°10' W 080°06'0 0.0
2017-Mar-20 10:10N 26°10' W 080°06'0 0.0
2017-Mar-20 09:10N 26°10' W 080°06'0 0.0
2017-Mar-20 08:10N 26°10' W 080°06'0 0.0
2017-Mar-20 07:16N 26°10' W 080°06'0 0.0
2017-Mar-20 05:28N 26°10' W 080°06'0 0.0
2017-Mar-20 03:16N 26°10' W 080°06'0 0.0
2017-Mar-20 02:22N 26°10' W 080°06'0 0.0
2017-Mar-20 01:22N 26°10' W 080°06'0 0.0
2017-Mar-20 00:04N 26°10' W 080°06'0 0.0
2017-Mar-19 21:22N 26°10' W 080°06'0 0.0
2017-Mar-19 20:10N 26°10' W 080°06'0 0.0
2017-Mar-19 18:10N 26°10' W 080°06'0 0.0
2017-Mar-19 17:16N 26°10' W 080°06'0 0.0
2017-Mar-19 16:28N 26°10' W 080°06'0 0.0
2017-Mar-19 12:04N 26°10' W 080°06'0 0.0
2017-Mar-19 11:16N 26°10' W 080°06'0 0.0
2017-Mar-19 10:22N 26°10' W 080°06'0 0.0
2017-Mar-19 09:22N 26°10' W 080°06'0 0.0
2017-Mar-19 08:22N 26°10' W 080°06'2 1.9
2017-Mar-19 07:33N 26°08' W 080°06'6 6.4
2017-Mar-19 06:33N 26°06' W 079°60'  
Track history (hours):
 
Tides and Currents Weather Stations Pressure Air Temp Water Temp Dewpoint Dewpoint Depression Visibility Wind Speed Wind Dir Waves Ship Positions

Boardwalk

Last reported at 2017-Mar-22 13:27 UTC. Time now 2017-Mar-25 00:06 UTC.
Position N 26°45' W 080°03'.

Length 50 m; draft 2.7 m.

Type: Pleasure craft. MMSI: 319031900.

Date/timePositionNaut miles runAvg speedWind from/ knotsBaromVisibWave heightAir tempDewpointWater temp
2017-Mar-22 13:27N 26°45' W 080°03'0 0.0
2017-Mar-22 12:33N 26°45' W 080°03'25 1.2
2017-Mar-21 14:33N 26°20' W 080°01'1414.5
2017-Mar-21 13:33N 26°06' W 080°07'4 1.2
2017-Mar-21 10:28N 26°10' W 080°06'0 0.0
2017-Mar-21 09:04N 26°10' W 080°06'0 0.0
2017-Mar-21 08:16N 26°10' W 080°06'0 0.0
2017-Mar-20 17:16N 26°10' W 080°06'0 0.0
2017-Mar-20 16:16N 26°10' W 080°06'0 0.0
2017-Mar-20 15:04N 26°10' W 080°06'0 0.0
2017-Mar-20 14:04N 26°10' W 080°06'0 0.0
2017-Mar-20 12:22N 26°10' W 080°06'0 0.0
2017-Mar-20 11:22N 26°10' W 080°06'0 0.0
2017-Mar-20 10:10N 26°10' W 080°06'0 0.0
2017-Mar-20 09:10N 26°10' W 080°06'0 0.0
2017-Mar-20 08:10N 26°10' W 080°06'0 0.0
2017-Mar-20 07:16N 26°10' W 080°06'0 0.0
2017-Mar-20 05:28N 26°10' W 080°06'0 0.0
2017-Mar-20 03:16N 26°10' W 080°06'0 0.0
2017-Mar-20 02:22N 26°10' W 080°06'0 0.0
2017-Mar-20 01:22N 26°10' W 080°06'0 0.0
2017-Mar-20 00:04N 26°10' W 080°06'0 0.0
2017-Mar-19 21:22N 26°10' W 080°06'0 0.0
2017-Mar-19 20:10N 26°10' W 080°06'0 0.0
2017-Mar-19 18:10N 26°10' W 080°06'0 0.0
2017-Mar-19 17:16N 26°10' W 080°06'0 0.0
2017-Mar-19 16:28N 26°10' W 080°06'0 0.0
2017-Mar-19 12:04N 26°10' W 080°06'0 0.0
2017-Mar-19 11:16N 26°10' W 080°06'0 0.0
2017-Mar-19 10:22N 26°10' W 080°06'0 0.0
2017-Mar-19 09:22N 26°10' W 080°06'0 0.0
2017-Mar-19 08:22N 26°10' W 080°06'2 1.9
2017-Mar-19 07:33N 26°08' W 080°06'6 6.4
2017-Mar-19 06:33N 26°06' W 079°60'  

Dump ship's entire track history